SBBE/BEL METAR and TAF weather

Enter ICAO airport designator
Station Type Date Time Source
SBBE METAR 2018/12/18 19:00 UTC NOAA

SBBE 181900Z 01004KT 9999 SCT030 BKN100 26/24 Q1010


Station Type Date Time Source
SBBE Decoded METAR 2018/12/18 19:00 UTC NOAA

Belem Aeroporto , Brazil (SBBE) 01-23S 048-29W 16M
Dec 18, 2018 - 02:00 PM EST / 2018.12.18 1900 UTC
Wind: from the N (010 degrees) at 5 MPH (4 KT):0
Visibility: greater than 7 mile(s):0
Sky conditions: mostly cloudy
Temperature: 78 F (26 C)
Dew Point: 75 F (24 C)
Relative Humidity: 88%
Pressure (altimeter): 29.83 in. Hg (1010 hPa)
ob: SBBE 181900Z 01004KT 9999 SCT030 BKN100 26/24 Q1010
cycle: 19

Station Type Date Time Source
SBBE TAF 2018/12/18 18:27 UTC NOAA

TAF TAF SBBE 181600Z 1818/1918 08010KT 9999 BKN020 FEW025TCU TN24/1908Z TX31/1916Z PROB30 1819/1821 TS SCT020 FEW030CB
BECMG 1822/1824 12008KT SCT030
BECMG 1902/1904 08005KT CAVOK
BECMG 1909/1911 08010KT 9999 SCT015
BECMG 1914/1916 36005KT BKN030 FEW035TCU
RMK PEN


Example: see airport list